MGGT

La Aurora Airport

Guatemala City, Guatemala
MGGT 212300Z 2200/2224 36012KT 9999 SCT016 TX26/2220Z TN15/2212Z TEMPO 2200/2206 8000 TSRA FEW025CB BECMG 2215/2217 SCT018 TEMPO 2219/2224 08008KT 7000 TSRA SCT020TCU FEW025CB
Issued Valid From Valid To
Sep-21 @ 23:00 UTC
(5 hours ago)
Sep-22 @ 00:00 UTC
(4 hours ago)
Sep-23 @ 00:00 UTC
(in 20 hours)
to
to
to
to
MGGT 212300Z 2200/2224 36012KT 9999 SCT016 TX26/2220Z TN15/2212Z TEMPO 2200/2206 8000 TSRA FEW025CB BECMG 2215/2217 SCT018 TEMPO 2219/2224 08008KT 7000 TSRA SCT020TCU FEW025CB
Issued Sep-21 @ 23:00 UTC
(5 hours ago)
Valid From Sep-22 @ 00:00 UTC
(4 hours ago)
Valid To Sep-23 @ 00:00 UTC
(in 20 hours)
-
-
-
-